Time;durP1;ratioP1;P1;durP2;ratioP2;P2;SDS_P1;SDS_P2;PMS_P1;PMS_P2;Temp;Humidity;BMP_temperature;BMP_pressure;BME280_temperature;BME280_humidity;BME280_pressure;Samples;Min_cycle;Max_cycle;Signal;HPM_P1;HPM_P2
2021/12/18 00:01:35;;;;;;;15.50;8.27;;;11.50;99.90;;;;;;5063466;28;20508;-70
2021/12/18 00:04:02;;;;;;;14.52;7.63;;;11.60;99.90;;;;;;5066693;28;20424;-69
2021/12/18 00:06:27;;;;;;;15.35;8.60;;;11.60;99.90;;;;;;5066580;28;20447;-69
2021/12/18 00:08:54;;;;;;;14.93;8.07;;;11.60;99.90;;;;;;5068856;28;20435;-69
2021/12/18 00:11:20;;;;;;;14.70;8.02;;;11.50;99.90;;;;;;5065590;28;20414;-70
2021/12/18 00:13:45;;;;;;;13.33;8.43;;;11.50;99.90;;;;;;5072371;28;20396;-70
2021/12/18 00:16:11;;;;;;;16.85;9.00;;;11.50;99.90;;;;;;5065626;28;20430;-70
2021/12/18 00:18:37;;;;;;;15.93;9.27;;;11.50;99.90;;;;;;5065340;28;20447;-69
2021/12/18 00:21:06;;;;;;;15.77;8.95;;;11.50;99.90;;;;;;5064144;28;20578;-70
2021/12/18 00:23:32;;;;;;;15.82;8.88;;;11.50;99.90;;;;;;5065502;28;20407;-70
2021/12/18 00:25:58;;;;;;;15.80;9.00;;;11.50;99.90;;;;;;5064514;28;20415;-69
2021/12/18 00:28:23;;;;;;;19.00;9.50;;;11.50;99.90;;;;;;5070673;28;20407;-71
2021/12/18 00:30:49;;;;;;;16.33;9.80;;;11.50;99.90;;;;;;5065779;28;20423;-71
2021/12/18 00:33:15;;;;;;;18.23;10.23;;;11.50;99.90;;;;;;5066056;28;20403;-70
2021/12/18 00:35:40;;;;;;;18.23;10.63;;;11.40;99.90;;;;;;5065556;28;20472;-71
2021/12/18 00:38:08;;;;;;;17.10;10.57;;;11.50;99.90;;;;;;5073614;28;20403;-68
2021/12/18 00:40:45;;;;;;;18.23;10.32;;;11.50;99.90;;;;;;5069814;28;20880;-70
2021/12/18 00:43:25;;;;;;;19.08;11.52;;;11.50;99.90;;;;;;5069074;28;20462;-70
2021/12/18 00:45:52;;;;;;;20.15;12.35;;;11.50;99.90;;;;;;5067967;28;21083;-71
2021/12/18 00:48:17;;;;;;;20.05;12.25;;;11.50;99.90;;;;;;5079766;28;20442;-71
2021/12/18 00:50:43;;;;;;;18.97;12.37;;;11.50;99.90;;;;;;5068411;28;20427;-70
2021/12/18 00:53:09;;;;;;;19.48;12.07;;;11.50;99.90;;;;;;5071594;28;20423;-70
2021/12/18 00:55:36;;;;;;;19.37;12.00;;;11.50;99.90;;;;;;5069169;28;20971;-70
2021/12/18 00:58:02;;;;;;;22.63;13.00;;;11.50;99.90;;;;;;5078119;28;20418;-71
2021/12/18 01:00:28;;;;;;;18.83;12.27;;;11.50;99.90;;;;;;5068908;28;20407;-70
2021/12/18 01:02:58;;;;;;;19.58;12.23;;;11.50;99.90;;;;;;5068601;28;20780;-70
2021/12/18 01:05:25;;;;;;;20.27;12.82;;;11.50;99.90;;;;;;5067784;28;20411;-69
2021/12/18 01:07:54;;;;;;;21.95;13.15;;;11.50;99.90;;;;;;5069702;28;20407;-70
2021/12/18 01:12:48;;;;;;;20.23;12.17;;;11.60;99.90;;;;;;5072893;28;20424;-70
2021/12/18 01:15:19;;;;;;;16.23;11.20;;;11.60;99.90;;;;;;5070130;28;20900;-70
2021/12/18 01:23:14;;;;;;;16.92;11.07;;;11.50;99.90;;;;;;5066757;28;21206;-70
2021/12/18 01:25:40;;;;;;;17.30;11.85;;;11.50;99.90;;;;;;5068354;28;20449;-70
2021/12/18 01:28:06;;;;;;;17.23;11.63;;;11.40;99.90;;;;;;5069965;28;20905;-71
2021/12/18 01:30:32;;;;;;;19.58;12.60;;;11.40;99.90;;;;;;5068799;28;20415;-71
2021/12/18 01:32:58;;;;;;;20.15;12.30;;;11.40;99.90;;;;;;5070461;28;20422;-70
2021/12/18 01:35:24;;;;;;;18.65;12.30;;;11.50;99.90;;;;;;5069980;28;20419;-70
2021/12/18 01:37:51;;;;;;;18.97;12.20;;;11.50;99.90;;;;;;5068396;28;20411;-71
2021/12/18 01:40:19;;;;;;;20.20;12.98;;;11.50;99.90;;;;;;5072704;28;20410;-70
2021/12/18 01:45:48;;;;;;;20.03;12.97;;;11.50;99.90;;;;;;5030176;28;20418;-70
2021/12/18 01:53:30;;;;;;;20.75;13.23;;;11.50;99.90;;;;;;5069265;28;20392;-72
2021/12/18 01:55:55;;;;;;;20.07;13.10;;;11.50;99.90;;;;;;5067235;28;21016;-71
2021/12/18 01:58:24;;;;;;;22.93;13.03;;;11.50;99.90;;;;;;5069524;28;20411;-71
2021/12/18 02:00:56;;;;;;;21.67;12.70;;;11.50;99.90;;;;;;5055387;28;20397;-73
2021/12/18 02:03:22;;;;;;;18.98;11.20;;;11.50;99.90;;;;;;5068349;28;20445;-70
2021/12/18 02:05:49;;;;;;;17.30;10.45;;;11.50;99.90;;;;;;5049654;28;20514;-73
2021/12/18 02:08:19;;;;;;;19.92;11.00;;;11.50;99.90;;;;;;5073990;28;20411;-70
2021/12/18 02:10:50;;;;;;;17.60;10.55;;;11.50;99.90;;;;;;5053817;28;20422;-70
2021/12/18 02:21:11;;;;;;;22.63;11.13;;;11.50;99.90;;;;;;5068695;28;20418;-70
2021/12/18 02:23:37;;;;;;;19.60;10.40;;;11.40;99.90;;;;;;5069133;28;20439;-70
2021/12/18 02:26:03;;;;;;;17.55;9.57;;;11.40;99.90;;;;;;5074058;28;20867;-72
2021/12/18 02:28:28;;;;;;;16.65;8.60;;;11.40;99.90;;;;;;5069479;28;20423;-71
2021/12/18 02:30:56;;;;;;;14.70;8.00;;;11.40;99.90;;;;;;5066614;28;20421;-72
2021/12/18 02:33:22;;;;;;;16.63;8.63;;;11.40;99.90;;;;;;5050028;28;20486;-73
2021/12/18 02:35:51;;;;;;;16.23;8.65;;;11.40;99.90;;;;;;5066873;28;20429;-72
2021/12/18 02:41:29;;;;;;;21.88;10.13;;;11.40;99.90;;;;;;5064764;28;20812;-71
2021/12/18 02:43:58;;;;;;;23.48;10.07;;;11.40;99.90;;;;;;5050353;28;20499;-72
2021/12/18 02:46:24;;;;;;;26.20;11.67;;;11.30;99.90;;;;;;5066668;28;20896;-71
2021/12/18 02:48:51;;;;;;;28.52;12.10;;;11.40;99.90;;;;;;5068389;28;20488;-72
2021/12/18 02:51:19;;;;;;;33.55;12.93;;;11.30;99.90;;;;;;5077915;28;20502;-71
2021/12/18 02:53:51;;;;;;;34.38;12.82;;;11.30;99.90;;;;;;5067597;28;20437;-71
2021/12/18 02:56:23;;;;;;;34.83;13.10;;;11.30;99.90;;;;;;5076030;28;20416;-71
2021/12/18 02:58:56;;;;;;;36.72;13.95;;;11.30;99.90;;;;;;5067414;28;20404;-72
2021/12/18 03:01:24;;;;;;;39.92;13.73;;;11.30;99.90;;;;;;5065135;28;20756;-72
2021/12/18 03:03:52;;;;;;;39.80;13.25;;;11.30;99.90;;;;;;5067717;28;20411;-71
2021/12/18 03:08:58;;;;;;;59.55;12.50;;;11.30;99.90;;;;;;5068187;28;20776;-70
2021/12/18 03:27:27;;;;;;;34.08;9.23;;;11.20;99.90;;;;;;5077751;28;20417;-71
2021/12/18 03:29:53;;;;;;;45.03;8.23;;;11.20;99.90;;;;;;5050524;28;20422;-70
2021/12/18 03:32:19;;;;;;;52.67;7.78;;;11.10;99.90;;;;;;5067663;28;20418;-71
2021/12/18 03:34:45;;;;;;;45.63;7.13;;;11.20;99.90;;;;;;5067394;28;20962;-71
2021/12/18 03:37:11;;;;;;;27.27;6.50;;;11.10;99.90;;;;;;5067671;28;20406;-71
2021/12/18 03:39:37;;;;;;;19.30;5.60;;;11.10;99.90;;;;;;5048317;28;20430;-71
2021/12/18 03:42:05;;;;;;;9.45;3.80;;;11.10;99.90;;;;;;5066954;28;20996;-72
2021/12/18 03:44:32;;;;;;;7.85;3.70;;;11.00;99.90;;;;;;5076182;28;20896;-71
2021/12/18 03:46:57;;;;;;;8.82;3.30;;;11.00;99.90;;;;;;5068503;28;20411;-70
2021/12/18 03:49:23;;;;;;;7.97;3.33;;;11.00;99.90;;;;;;5076369;28;20418;-70
2021/12/18 03:51:50;;;;;;;7.50;3.60;;;11.00;99.90;;;;;;5070375;28;20434;-70
2021/12/18 03:54:15;;;;;;;9.48;3.60;;;10.90;99.90;;;;;;5067276;28;20498;-71
2021/12/18 03:56:41;;;;;;;14.13;3.30;;;11.00;99.90;;;;;;5050561;28;20513;-70
2021/12/18 03:59:07;;;;;;;8.85;3.63;;;10.90;99.90;;;;;;5049263;28;20784;-70
2021/12/18 04:01:32;;;;;;;11.93;3.30;;;10.90;99.90;;;;;;5062256;28;20442;-70
2021/12/18 04:03:58;;;;;;;8.75;3.50;;;10.90;99.90;;;;;;5048160;28;20427;-70
2021/12/18 04:06:24;;;;;;;12.87;3.67;;;10.90;99.90;;;;;;5048493;28;20427;-69
2021/12/18 04:08:50;;;;;;;12.82;3.88;;;10.90;99.90;;;;;;5078015;28;20970;-70
2021/12/18 04:11:16;;;;;;;12.80;4.23;;;10.90;99.90;;;;;;5066274;28;20419;-70
2021/12/18 04:13:45;;;;;;;7.85;4.03;;;10.90;99.90;;;;;;5085983;28;20409;-70
2021/12/18 04:16:11;;;;;;;8.98;3.53;;;10.90;99.90;;;;;;5072729;28;20430;-70
2021/12/18 04:18:37;;;;;;;10.10;3.00;;;10.90;99.90;;;;;;5048910;28;20446;-70
2021/12/18 04:21:03;;;;;;;8.68;2.45;;;10.90;99.90;;;;;;5066518;28;21064;-71
2021/12/18 04:23:29;;;;;;;5.72;2.60;;;10.90;99.90;;;;;;5067798;28;20267;-70
2021/12/18 04:25:55;;;;;;;10.55;2.30;;;10.50;99.90;;;;;;5047292;28;20194;-70
2021/12/18 04:28:21;;;;;;;16.00;1.90;;;10.10;99.90;;;;;;5068336;28;20186;-71
2021/12/18 04:30:47;;;;;;;10.98;1.92;;;9.90;99.90;;;;;;5066018;28;20458;-70
2021/12/18 04:33:12;;;;;;;9.50;2.43;;;10.20;99.90;;;;;;5052850;28;20418;-70
2021/12/18 04:35:38;;;;;;;10.00;1.92;;;10.40;99.90;;;;;;5065406;28;20772;-71
2021/12/18 04:38:04;;;;;;;7.10;2.38;;;10.50;99.90;;;;;;5066719;28;20427;-70
2021/12/18 04:40:30;;;;;;;9.50;2.20;;;10.50;99.90;;;;;;5048389;28;20922;-72
2021/12/18 04:42:56;;;;;;;12.63;2.37;;;10.60;99.90;;;;;;5068798;28;20461;-72
2021/12/18 04:45:23;;;;;;;11.02;2.60;;;10.60;99.90;;;;;;5067392;28;20415;-72
2021/12/18 04:47:49;;;;;;;12.13;2.80;;;10.60;99.90;;;;;;5071185;28;20460;-72
2021/12/18 04:50:15;;;;;;;10.70;2.88;;;10.70;99.90;;;;;;5059409;28;20410;-73
2021/12/18 04:52:40;;;;;;;11.73;3.40;;;10.70;99.90;;;;;;5071833;28;20422;-71
2021/12/18 04:55:07;;;;;;;16.33;4.40;;;10.70;99.90;;;;;;5067768;28;20425;-71
2021/12/18 04:57:32;;;;;;;14.02;4.75;;;10.70;99.90;;;;;;5049979;28;20435;-72
2021/12/18 04:59:58;;;;;;;20.92;4.97;;;10.70;99.90;;;;;;5072565;28;20529;-72
2021/12/18 05:02:34;;;;;;;23.55;5.20;;;10.70;99.90;;;;;;5067629;28;20482;-71
2021/12/18 05:04:59;;;;;;;17.70;5.63;;;10.70;99.90;;;;;;5067078;28;20882;-72
2021/12/18 05:07:27;;;;;;;13.23;5.70;;;10.70;99.90;;;;;;5074486;28;20447;-71
2021/12/18 05:09:52;;;;;;;14.00;6.38;;;10.70;99.90;;;;;;5064094;28;20419;-73
2021/12/18 05:12:18;;;;;;;18.33;6.15;;;10.70;99.90;;;;;;5068056;28;20422;-72
2021/12/18 05:14:43;;;;;;;20.90;5.88;;;10.70;99.90;;;;;;5068646;28;20527;-72
2021/12/18 05:17:09;;;;;;;14.03;5.93;;;10.70;99.90;;;;;;5065517;28;20450;-70
2021/12/18 05:19:35;;;;;;;21.42;6.05;;;10.70;99.90;;;;;;5067445;28;20810;-70
2021/12/18 05:22:02;;;;;;;19.17;4.78;;;10.80;99.90;;;;;;5065879;28;20423;-70
2021/12/18 05:24:27;;;;;;;33.03;4.80;;;10.80;99.90;;;;;;5067530;28;20407;-70
2021/12/18 05:26:53;;;;;;;15.07;4.87;;;10.70;99.90;;;;;;5069438;28;20426;-70
2021/12/18 05:29:19;;;;;;;18.40;4.55;;;10.70;99.90;;;;;;5073759;28;20462;-71
2021/12/18 05:31:45;;;;;;;20.63;5.13;;;10.70;99.90;;;;;;5070179;28;20403;-70
2021/12/18 05:34:12;;;;;;;20.80;5.07;;;10.70;99.90;;;;;;5051876;28;20776;-71
2021/12/18 05:37:12;;;;;;;21.10;5.07;;;10.70;99.90;;;;;;5072839;28;20906;-72
2021/12/18 05:39:29;;;;;;;28.67;4.47;;;10.70;99.90;;;;;;5068370;28;20413;-71
2021/12/18 05:41:56;;;;;;;60.93;4.50;;;10.70;99.90;;;;;;5056972;28;20431;-70
2021/12/18 05:44:25;;;;;;;37.38;3.92;;;10.70;99.90;;;;;;5072056;28;20418;-71
2021/12/18 05:46:52;;;;;;;36.17;3.92;;;10.70;99.90;;;;;;5072734;28;20549;-69
2021/12/18 05:49:18;;;;;;;28.92;3.95;;;10.70;99.90;;;;;;5074256;28;20818;-71
2021/12/18 05:51:43;;;;;;;16.23;4.20;;;10.70;99.90;;;;;;5069981;28;20486;-70
2021/12/18 05:54:10;;;;;;;23.05;3.95;;;10.70;99.90;;;;;;5073347;28;20878;-70
2021/12/18 05:56:36;;;;;;;13.38;4.10;;;10.70;99.90;;;;;;5068427;28;20432;-70
2021/12/18 05:59:03;;;;;;;13.13;4.57;;;10.60;99.90;;;;;;5073919;28;20394;-70
2021/12/18 06:01:28;;;;;;;17.05;5.40;;;10.60;99.90;;;;;;5065077;28;20422;-70
2021/12/18 06:03:54;;;;;;;15.85;5.70;;;10.60;99.90;;;;;;5070494;28;20404;-69
2021/12/18 06:06:21;;;;;;;21.52;6.32;;;10.60;99.90;;;;;;5065922;28;20880;-71
2021/12/18 06:08:47;;;;;;;19.75;7.40;;;10.60;99.90;;;;;;5068857;28;20756;-70
2021/12/18 06:11:16;;;;;;;31.17;9.00;;;10.60;99.90;;;;;;5067566;28;20419;-70
2021/12/18 06:13:47;;;;;;;25.17;9.48;;;10.60;99.90;;;;;;5068302;28;20419;-70
2021/12/18 06:16:14;;;;;;;20.77;10.00;;;10.60;99.90;;;;;;5067200;28;20430;-70
2021/12/18 06:18:44;;;;;;;18.02;8.50;;;10.60;99.90;;;;;;5069990;28;20716;-70
2021/12/18 06:21:14;;;;;;;18.23;6.45;;;10.50;99.90;;;;;;5068639;28;20480;-71
2021/12/18 06:23:40;;;;;;;9.18;5.18;;;10.60;99.90;;;;;;5072730;28;20413;-71
2021/12/18 06:26:06;;;;;;;7.95;4.05;;;10.50;99.90;;;;;;5066619;28;20570;-70
2021/12/18 06:28:32;;;;;;;9.13;3.10;;;10.50;99.90;;;;;;5066850;28;20527;-71
2021/12/18 06:30:57;;;;;;;6.47;3.13;;;10.50;99.90;;;;;;5070472;28;20411;-71
2021/12/18 06:33:23;;;;;;;5.13;3.15;;;10.40;99.90;;;;;;5069486;28;21065;-71
2021/12/18 06:35:49;;;;;;;6.90;3.00;;;10.40;99.90;;;;;;5072508;28;20504;-69
2021/12/18 06:38:15;;;;;;;6.85;2.90;;;10.40;99.90;;;;;;5067494;28;20765;-70
2021/12/18 06:40:41;;;;;;;10.93;2.42;;;10.40;99.90;;;;;;5066848;28;20418;-73
2021/12/18 06:43:07;;;;;;;16.77;2.43;;;10.40;99.90;;;;;;5066590;28;20423;-72
2021/12/18 06:45:32;;;;;;;13.93;2.55;;;10.30;99.90;;;;;;5066562;28;20426;-72
2021/12/18 06:47:58;;;;;;;11.80;2.97;;;10.30;99.90;;;;;;5075505;28;20411;-73
2021/12/18 06:50:24;;;;;;;34.35;3.65;;;10.30;99.90;;;;;;5069740;28;20407;-72
2021/12/18 06:52:50;;;;;;;35.30;3.90;;;10.30;99.90;;;;;;5069973;28;20465;-72
2021/12/18 06:55:16;;;;;;;25.95;4.13;;;10.30;99.90;;;;;;5067709;28;20445;-73
2021/12/18 06:57:42;;;;;;;18.23;3.80;;;10.30;99.90;;;;;;5065620;28;20422;-73
2021/12/18 07:00:11;;;;;;;26.50;3.60;;;10.20;99.90;;;;;;5074914;28;20496;-71
2021/12/18 07:02:37;;;;;;;23.02;3.72;;;10.20;99.90;;;;;;5065744;28;20473;-72
2021/12/18 07:05:03;;;;;;;21.58;3.42;;;10.20;99.90;;;;;;5064987;28;20418;-72
2021/12/18 07:07:29;;;;;;;15.30;3.63;;;10.20;99.90;;;;;;5072721;28;20410;-73
2021/12/18 07:09:55;;;;;;;29.63;4.40;;;10.20;99.90;;;;;;5067631;28;20468;-72
2021/12/18 07:12:20;;;;;;;22.10;3.80;;;10.20;99.90;;;;;;5068979;28;20532;-73
2021/12/18 07:14:46;;;;;;;14.85;3.60;;;10.20;99.90;;;;;;5074002;28;20424;-72
2021/12/18 07:17:12;;;;;;;21.35;3.60;;;10.10;99.90;;;;;;5071079;28;20423;-73
2021/12/18 07:19:38;;;;;;;38.13;3.80;;;10.10;99.90;;;;;;5066190;28;20407;-73
2021/12/18 07:22:04;;;;;;;34.33;4.00;;;10.10;99.90;;;;;;5075184;28;20419;-72
2021/12/18 07:24:29;;;;;;;34.08;4.15;;;10.10;99.90;;;;;;5076697;28;20905;-73
2021/12/18 07:26:55;;;;;;;32.60;3.97;;;10.10;99.90;;;;;;5075390;28;20419;-74
2021/12/18 07:29:21;;;;;;;18.77;4.30;;;10.00;99.90;;;;;;5074670;28;20448;-74
2021/12/18 07:31:47;;;;;;;24.87;4.20;;;10.00;99.90;;;;;;5072038;28;20469;-70
2021/12/18 07:34:12;;;;;;;45.42;4.78;;;10.00;99.90;;;;;;5071931;28;20413;-72
2021/12/18 07:36:38;;;;;;;32.53;4.30;;;10.00;99.90;;;;;;5068646;28;20423;-70
2021/12/18 07:39:04;;;;;;;30.08;4.03;;;10.00;99.90;;;;;;5067673;28;20404;-71
2021/12/18 07:41:30;;;;;;;21.00;3.80;;;10.00;99.90;;;;;;5063991;28;20412;-71
2021/12/18 07:43:55;;;;;;;13.55;4.35;;;10.00;99.90;;;;;;5059535;28;20413;-72
2021/12/18 07:46:21;;;;;;;27.38;3.90;;;9.90;99.90;;;;;;5060949;28;20462;-72
2021/12/18 07:48:47;;;;;;;38.38;3.63;;;9.90;99.90;;;;;;5061594;28;20417;-69
2021/12/18 07:51:12;;;;;;;40.47;4.00;;;9.90;99.90;;;;;;5060316;28;20421;-70
2021/12/18 07:53:38;;;;;;;36.97;4.05;;;9.90;99.90;;;;;;5059993;28;20914;-70
2021/12/18 07:56:04;;;;;;;30.33;3.70;;;9.90;99.90;;;;;;5057799;28;20424;-71
2021/12/18 07:58:31;;;;;;;23.40;3.10;;;9.90;99.90;;;;;;5063335;28;20523;-70
2021/12/18 08:00:57;;;;;;;25.63;3.63;;;9.90;99.90;;;;;;5056667;28;20409;-71
2021/12/18 08:03:22;;;;;;;19.57;3.47;;;9.80;99.90;;;;;;5019559;28;20892;-71
2021/12/18 08:05:48;;;;;;;9.52;3.00;;;9.90;99.90;;;;;;5042075;28;20422;-70
2021/12/18 08:08:14;;;;;;;6.37;2.77;;;9.80;99.90;;;;;;5042519;28;20417;-70
2021/12/18 08:10:39;;;;;;;10.82;3.20;;;9.80;99.90;;;;;;5059033;28;20412;-71
2021/12/18 08:13:05;;;;;;;14.63;3.80;;;9.90;99.90;;;;;;5057755;28;20416;-71
2021/12/18 08:15:31;;;;;;;16.80;4.15;;;9.90;99.90;;;;;;5060868;28;20766;-71
2021/12/18 08:17:58;;;;;;;8.90;3.37;;;9.90;99.90;;;;;;5057923;28;20417;-70
2021/12/18 08:20:25;;;;;;;10.00;3.60;;;9.90;99.90;;;;;;5055236;28;20419;-70
2021/12/18 08:22:51;;;;;;;7.15;3.60;;;9.90;99.90;;;;;;5057556;28;20415;-70
2021/12/18 08:25:16;;;;;;;8.60;4.10;;;9.90;99.90;;;;;;5059981;28;20426;-69
2021/12/18 08:27:42;;;;;;;6.70;3.50;;;9.90;99.90;;;;;;5060928;28;20504;-71
2021/12/18 08:30:09;;;;;;;9.77;3.50;;;9.90;99.90;;;;;;5060016;28;20780;-70
2021/12/18 08:32:34;;;;;;;11.48;3.58;;;9.90;99.90;;;;;;5045090;28;20415;-69
2021/12/18 08:35:00;;;;;;;7.03;2.97;;;9.90;99.90;;;;;;5060394;28;20425;-69
2021/12/18 08:37:26;;;;;;;16.77;3.92;;;9.90;99.90;;;;;;5060986;28;20407;-69
2021/12/18 08:39:51;;;;;;;15.70;4.10;;;9.90;99.90;;;;;;5059082;28;20510;-70
2021/12/18 08:42:17;;;;;;;25.08;4.80;;;9.90;99.90;;;;;;5063092;28;20768;-70
2021/12/18 08:44:43;;;;;;;17.60;5.10;;;9.90;99.90;;;;;;5046401;28;20434;-72
2021/12/18 08:47:10;;;;;;;25.17;5.40;;;9.90;99.90;;;;;;5065815;28;20896;-69
2021/12/18 08:49:37;;;;;;;28.50;6.20;;;9.90;99.90;;;;;;5066297;28;20399;-72
2021/12/18 08:52:03;;;;;;;23.48;5.88;;;9.90;99.90;;;;;;5065021;28;20940;-71
2021/12/18 08:54:29;;;;;;;17.50;5.10;;;9.90;99.90;;;;;;5048413;28;20483;-72
2021/12/18 08:56:54;;;;;;;13.93;5.00;;;9.90;99.90;;;;;;5064931;28;21127;-71
2021/12/18 08:59:20;;;;;;;15.60;5.20;;;9.90;99.90;;;;;;5069705;28;20403;-71
2021/12/18 09:01:46;;;;;;;19.90;5.80;;;9.90;99.90;;;;;;5066781;28;20432;-71
2021/12/18 09:04:12;;;;;;;14.97;5.47;;;9.90;99.90;;;;;;5071540;28;20924;-73
2021/12/18 09:06:37;;;;;;;21.08;5.70;;;9.90;99.90;;;;;;5068132;28;20415;-71
2021/12/18 09:09:04;;;;;;;24.00;6.30;;;9.90;99.90;;;;;;5073939;28;20486;-71
2021/12/18 09:11:29;;;;;;;22.52;6.28;;;9.90;99.90;;;;;;5049981;28;20424;-71
2021/12/18 09:13:55;;;;;;;22.33;4.38;;;9.90;99.90;;;;;;5070515;28;20431;-71
2021/12/18 09:16:21;;;;;;;17.17;4.37;;;9.90;99.90;;;;;;5068307;28;20518;-70
2021/12/18 09:18:46;;;;;;;19.17;4.68;;;9.90;99.90;;;;;;5070579;28;20423;-71
2021/12/18 09:21:12;;;;;;;17.47;5.30;;;9.90;99.90;;;;;;5070926;28;20426;-71
2021/12/18 09:23:38;;;;;;;18.13;6.00;;;9.90;99.90;;;;;;5072570;28;20411;-69
2021/12/18 09:26:03;;;;;;;24.73;6.90;;;9.90;99.90;;;;;;5068488;28;20434;-70
2021/12/18 09:28:29;;;;;;;19.23;8.27;;;9.90;99.90;;;;;;5070250;28;20912;-70
2021/12/18 09:30:55;;;;;;;34.53;9.60;;;10.00;99.90;;;;;;5054081;28;20424;-71
2021/12/18 09:33:22;;;;;;;45.83;12.40;;;10.00;99.90;;;;;;5051813;28;20892;-72
2021/12/18 09:35:48;;;;;;;54.15;14.15;;;10.00;99.90;;;;;;5072393;28;20425;-71
2021/12/18 09:38:14;;;;;;;47.72;12.68;;;10.00;99.90;;;;;;5085746;28;20476;-72
2021/12/18 09:40:39;;;;;;;44.17;12.38;;;10.00;99.90;;;;;;5069195;28;20407;-73
2021/12/18 09:43:06;;;;;;;43.25;11.27;;;10.00;99.90;;;;;;5069665;28;20797;-71
2021/12/18 09:45:32;;;;;;;37.25;12.50;;;10.00;99.90;;;;;;5075386;28;20414;-69
2021/12/18 09:47:58;;;;;;;50.15;13.30;;;10.00;99.90;;;;;;5069631;28;20483;-70
2021/12/18 09:50:27;;;;;;;51.05;13.18;;;10.00;99.90;;;;;;5072182;28;20494;-70
2021/12/18 09:52:53;;;;;;;40.72;13.40;;;10.10;99.90;;;;;;5074544;28;20417;-71
2021/12/18 09:55:19;;;;;;;35.65;12.30;;;10.10;99.90;;;;;;5087355;28;20468;-71
2021/12/18 09:57:46;;;;;;;35.50;10.00;;;10.10;99.90;;;;;;5050947;28;20407;-70
2021/12/18 10:00:16;;;;;;;22.00;8.18;;;10.10;99.90;;;;;;5055776;28;20489;-70
2021/12/18 10:02:41;;;;;;;45.50;6.70;;;10.10;99.90;;;;;;5048960;28;21029;-69
2021/12/18 10:05:26;;;;;;;37.90;6.80;;;10.10;99.90;;;;;;5050945;28;20408;-69
2021/12/18 10:08:18;;;;;;;23.00;7.13;;;10.10;99.90;;;;;;5067401;28;20407;-70
2021/12/18 10:11:05;;;;;;;31.60;7.90;;;10.10;99.90;;;;;;5073523;28;20419;-70
2021/12/18 10:13:50;;;;;;;27.00;7.67;;;10.10;99.90;;;;;;5067671;28;20439;-71
2021/12/18 10:16:16;;;;;;;29.85;9.52;;;10.10;99.90;;;;;;5067083;28;20446;-71
2021/12/18 10:18:42;;;;;;;34.93;10.03;;;10.10;99.90;;;;;;5067795;28;20436;-71
2021/12/18 10:21:15;;;;;;;28.15;10.50;;;10.10;99.90;;;;;;5071312;28;20407;-70
2021/12/18 10:23:43;;;;;;;28.10;9.85;;;10.10;99.90;;;;;;5050717;28;20454;-70
2021/12/18 10:26:27;;;;;;;29.65;9.75;;;10.10;99.90;;;;;;5074112;28;20419;-71
2021/12/18 10:28:53;;;;;;;26.85;10.38;;;10.10;99.90;;;;;;5069216;28;21297;-71
2021/12/18 10:31:37;;;;;;;49.87;11.37;;;10.10;99.90;;;;;;5067585;28;20510;-71
2021/12/18 10:34:27;;;;;;;62.92;11.77;;;10.20;99.90;;;;;;5051396;28;20411;-71
2021/12/18 10:37:13;;;;;;;48.83;12.07;;;10.20;99.90;;;;;;5033203;28;20407;-70
2021/12/18 10:39:46;;;;;;;56.08;18.75;;;10.20;99.90;;;;;;5074576;28;20412;-71
2021/12/18 10:42:26;;;;;;;39.25;12.43;;;10.20;99.90;;;;;;5068096;28;20935;-70
2021/12/18 10:45:07;;;;;;;47.97;13.00;;;10.20;99.90;;;;;;5068874;28;20892;-70
2021/12/18 10:47:59;;;;;;;42.58;13.40;;;10.20;99.90;;;;;;5078851;28;20453;-72
2021/12/18 10:50:25;;;;;;;61.75;14.18;;;10.20;99.90;;;;;;5053054;28;20422;-71
2021/12/18 10:53:03;;;;;;;46.63;15.00;;;10.30;99.90;;;;;;5073414;28;20874;-70
2021/12/18 10:55:38;;;;;;;54.42;15.63;;;10.30;99.90;;;;;;5072712;28;20419;-70
2021/12/18 10:58:06;;;;;;;47.25;14.77;;;10.20;99.90;;;;;;5069136;28;20451;-71
2021/12/18 11:00:36;;;;;;;46.20;14.98;;;10.30;99.90;;;;;;5077510;28;20401;-71
2021/12/18 11:03:13;;;;;;;46.25;14.55;;;10.30;99.90;;;;;;5065004;28;20414;-72
2021/12/18 11:05:39;;;;;;;50.40;13.97;;;10.30;99.90;;;;;;5050179;28;20410;-72
2021/12/18 11:08:10;;;;;;;41.13;13.15;;;10.30;99.90;;;;;;5067903;28;20427;-71
2021/12/18 11:10:42;;;;;;;;;;;;;;;;;;;;;
2021/12/18 11:15:49;;;;;;;38.80;13.35;;;10.30;99.90;;;;;;5076829;28;20411;-71
2021/12/18 11:18:15;;;;;;;35.38;13.15;;;10.40;99.90;;;;;;5069444;28;20504;-71
2021/12/18 11:20:41;;;;;;;38.85;11.25;;;10.40;99.90;;;;;;5055080;28;20398;-70
2021/12/18 11:23:07;;;;;;;29.85;11.27;;;10.40;99.90;;;;;;5054924;28;20506;-71
2021/12/18 11:25:33;;;;;;;33.33;11.73;;;10.40;99.90;;;;;;5065594;28;20510;-73
2021/12/18 11:27:59;;;;;;;26.80;11.13;;;10.40;99.90;;;;;;5069068;28;20419;-72
2021/12/18 11:30:25;;;;;;;21.67;9.85;;;10.40;99.90;;;;;;5032946;28;20484;-72
2021/12/18 11:32:54;;;;;;;22.13;9.80;;;10.50;99.90;;;;;;5066877;28;20469;-73
2021/12/18 11:35:21;;;;;;;22.75;9.65;;;10.50;99.90;;;;;;5067877;28;20419;-70
2021/12/18 11:38:07;;;;;;;26.95;10.75;;;10.50;99.90;;;;;;5083429;28;20414;-71
2021/12/18 11:40:36;;;;;;;27.05;10.93;;;10.60;99.90;;;;;;5073284;28;20925;-70
2021/12/18 11:43:35;;;;;;;26.80;11.05;;;10.60;99.90;;;;;;5063630;28;20468;-69
2021/12/18 11:46:21;;;;;;;28.45;11.15;;;10.70;99.90;;;;;;5060271;28;21321;-70
2021/12/18 11:48:55;;;;;;;33.75;15.55;;;10.70;99.90;;;;;;5043319;28;20446;-69
2021/12/18 11:51:21;;;;;;;29.90;12.32;;;10.70;99.90;;;;;;5058732;28;20429;-69
2021/12/18 11:53:47;;;;;;;30.80;12.68;;;10.70;99.90;;;;;;5038981;28;20503;-71
2021/12/18 11:56:14;;;;;;;30.10;11.63;;;10.80;99.90;;;;;;5057349;28;20495;-70
2021/12/18 11:58:45;;;;;;;26.50;11.05;;;10.80;99.90;;;;;;5045978;28;20443;-70
2021/12/18 12:01:22;;;;;;;25.98;11.40;;;10.80;99.90;;;;;;5059698;28;20883;-70
2021/12/18 12:03:51;;;;;;;29.07;11.93;;;10.80;99.90;;;;;;5064096;28;20465;-70
2021/12/18 12:06:30;;;;;;;26.75;12.15;;;10.80;99.90;;;;;;5060442;28;20423;-69
2021/12/18 12:09:34;;;;;;;29.00;12.17;;;10.80;99.90;;;;;;5032151;28;20408;-71
2021/12/18 12:12:05;;;;;;;24.47;10.73;;;10.90;99.90;;;;;;5060237;28;20415;-71
2021/12/18 12:14:41;;;;;;;27.33;10.85;;;10.80;99.90;;;;;;5059686;28;20921;-70
2021/12/18 12:17:15;;;;;;;23.85;10.63;;;10.90;99.90;;;;;;5055907;28;20798;-72
2021/12/18 12:19:42;;;;;;;24.75;10.85;;;10.90;99.90;;;;;;5064070;28;20488;-70
2021/12/18 12:22:42;;;;;;;28.70;11.95;;;10.80;99.90;;;;;;5042785;28;20446;-70
2021/12/18 12:25:11;;;;;;;37.13;13.77;;;10.80;99.90;;;;;;5055841;28;20440;-70
2021/12/18 12:27:41;;;;;;;32.13;13.82;;;10.90;99.90;;;;;;5046090;28;20437;-71
2021/12/18 12:30:32;;;;;;;34.97;14.70;;;10.90;99.90;;;;;;5042054;28;20457;-71
2021/12/18 12:33:03;;;;;;;31.15;13.75;;;10.80;99.90;;;;;;5024667;28;20772;-70
2021/12/18 12:35:29;;;;;;;32.70;13.05;;;10.90;99.90;;;;;;5062761;28;20496;-69
2021/12/18 12:37:55;;;;;;;31.85;13.05;;;10.90;99.90;;;;;;5053134;28;20428;-71
2021/12/18 12:40:31;;;;;;;25.80;10.63;;;11.00;99.90;;;;;;5063242;28;20405;-73
2021/12/18 12:43:21;;;;;;;26.80;11.07;;;11.00;99.90;;;;;;5052559;28;20962;-70
2021/12/18 12:45:50;;;;;;;25.90;10.23;;;11.00;99.90;;;;;;5066171;28;20428;-71
2021/12/18 12:48:17;;;;;;;30.10;11.05;;;11.00;99.90;;;;;;5067726;28;20395;-70
2021/12/18 12:50:52;;;;;;;30.63;11.35;;;10.90;99.90;;;;;;5068138;28;20892;-71
2021/12/18 12:53:18;;;;;;;20.60;8.05;;;11.00;99.90;;;;;;5066759;28;20469;-69
2021/12/18 12:55:47;;;;;;;19.88;7.80;;;10.90;99.90;;;;;;5065946;28;20449;-70
2021/12/18 12:58:17;;;;;;;12.50;6.28;;;11.00;99.90;;;;;;5065846;28;20412;-69
2021/12/18 13:00:44;;;;;;;11.48;5.45;;;11.00;99.90;;;;;;5075255;28;20484;-69
2021/12/18 13:03:16;;;;;;;14.73;5.20;;;11.00;99.90;;;;;;5069048;28;20407;-69
2021/12/18 13:05:58;;;;;;;9.82;5.10;;;11.00;99.90;;;;;;5062391;28;20439;-69
2021/12/18 13:08:26;;;;;;;14.18;5.38;;;11.00;99.90;;;;;;5068830;28;20416;-69
2021/12/18 13:10:54;;;;;;;8.45;4.75;;;11.10;99.90;;;;;;5063538;28;20413;-72
2021/12/18 13:13:23;;;;;;;8.68;3.92;;;11.10;99.90;;;;;;5063307;28;20407;-70
2021/12/18 13:16:01;;;;;;;6.75;3.80;;;11.10;99.90;;;;;;5072367;28;20419;-72
2021/12/18 13:18:32;;;;;;;6.32;3.83;;;11.00;99.90;;;;;;5062372;28;20448;-69
2021/12/18 13:21:01;;;;;;;6.77;3.97;;;11.00;99.90;;;;;;5067383;28;20415;-69
2021/12/18 13:23:48;;;;;;;8.02;4.47;;;11.00;99.90;;;;;;5066501;28;20890;-70
2021/12/18 13:26:21;;;;;;;8.55;4.68;;;11.00;99.90;;;;;;5069808;28;20500;-70
2021/12/18 13:28:56;;;;;;;10.13;4.90;;;11.10;99.90;;;;;;5068981;28;20407;-70
2021/12/18 13:31:26;;;;;;;9.27;4.93;;;11.10;99.90;;;;;;5069420;28;20446;-70
2021/12/18 13:33:58;;;;;;;5.65;4.07;;;11.10;99.90;;;;;;5070171;28;20418;-71